createdAt,value
2023-02-02T00:01:22.175Z,3.25
2023-02-02T00:03:52.706Z,2.47
2023-02-02T00:06:24.611Z,2.05
2023-02-02T00:08:51.639Z,2.28
2023-02-02T00:11:19.747Z,3.33
2023-02-02T00:13:47.016Z,2.53
2023-02-02T00:16:29.258Z,2.00
2023-02-02T00:19:00.902Z,2.75
2023-02-02T00:21:28.409Z,1.75
2023-02-02T00:23:55.213Z,3.67
2023-02-02T00:26:22.073Z,2.28
2023-02-02T00:28:49.067Z,2.17
2023-02-02T00:31:16.246Z,2.93
2023-02-02T00:33:47.277Z,1.95
2023-02-02T00:36:14.536Z,2.30
2023-02-02T00:38:41.326Z,2.30
2023-02-02T00:41:08.408Z,2.20
2023-02-02T00:43:35.600Z,2.17
2023-02-02T00:46:02.469Z,2.50
2023-02-02T00:48:30.003Z,2.13
2023-02-02T00:50:57.312Z,2.25
2023-02-02T00:53:24.194Z,1.90
2023-02-02T00:55:53.370Z,2.80
2023-02-02T00:58:20.152Z,2.15
2023-02-02T01:00:47.752Z,2.67
2023-02-02T01:03:14.792Z,2.47
2023-02-02T01:05:42.130Z,1.80
2023-02-02T01:08:09.009Z,2.78
2023-02-02T01:10:35.989Z,2.20
2023-02-02T01:13:03.696Z,2.35
2023-02-02T01:15:31.477Z,2.08
2023-02-02T01:17:58.458Z,2.40
2023-02-02T01:20:25.831Z,2.30
2023-02-02T01:22:52.819Z,2.20
2023-02-02T01:25:19.966Z,1.63
2023-02-02T01:27:46.801Z,2.60
2023-02-02T01:30:14.181Z,2.47
2023-02-02T01:32:41.040Z,2.55
2023-02-02T01:35:08.040Z,1.77
2023-02-02T01:37:34.794Z,2.05
2023-02-02T01:40:01.570Z,2.53
2023-02-02T01:42:28.606Z,2.70
2023-02-02T01:45:01.767Z,2.15
2023-02-02T01:47:33.195Z,2.65
2023-02-02T01:50:01.197Z,1.65
2023-02-02T01:52:30.313Z,2.50
2023-02-02T01:55:04.300Z,2.05
2023-02-02T01:57:42.204Z,1.95
2023-02-02T02:00:12.467Z,2.55
2023-02-02T02:02:46.442Z,1.75
2023-02-02T02:05:18.776Z,2.60
2023-02-02T02:07:49.929Z,3.53
2023-02-02T02:10:18.444Z,1.85
2023-02-02T02:15:32.230Z,2.83
2023-02-02T02:18:38.212Z,1.95
2023-02-02T02:21:29.726Z,2.00
2023-02-02T02:24:35.213Z,1.90
2023-02-02T02:27:39.545Z,1.95
2023-02-02T02:30:48.400Z,1.77
2023-02-02T02:33:50.426Z,1.48
2023-02-02T02:36:26.589Z,2.63
2023-02-02T02:39:14.754Z,1.73
2023-02-02T02:41:57.508Z,2.30
2023-02-02T02:44:25.832Z,1.75
2023-02-02T02:46:53.430Z,2.22
2023-02-02T02:49:20.547Z,2.00
2023-02-02T02:51:54.784Z,2.00
2023-02-02T02:54:35.630Z,2.72
2023-02-02T02:57:33.151Z,1.38
2023-02-02T03:00:24.882Z,2.00
2023-02-02T03:03:02.958Z,1.60
2023-02-02T03:05:38.584Z,2.40
2023-02-02T03:08:24.484Z,2.00
2023-02-02T03:10:52.204Z,0.95
2023-02-02T03:13:19.258Z,1.52
2023-02-02T03:15:47.593Z,2.25
2023-02-02T03:18:17.564Z,1.38
2023-02-02T03:20:45.768Z,1.90
2023-02-02T03:25:39.512Z,1.67
2023-02-02T03:28:07.174Z,1.90
2023-02-02T03:30:35.326Z,3.40
2023-02-02T03:35:29.025Z,1.65
2023-02-02T03:37:55.770Z,2.45
2023-02-02T03:40:22.763Z,1.90
2023-02-02T03:42:49.672Z,1.67
2023-02-02T03:45:16.506Z,1.05
2023-02-02T03:47:43.269Z,1.48
2023-02-02T03:50:10.520Z,1.52
2023-02-02T03:52:37.325Z,1.40
2023-02-02T03:55:05.556Z,2.35
2023-02-02T03:57:32.351Z,1.40
2023-02-02T03:59:59.108Z,1.63
2023-02-02T04:02:25.853Z,1.30
2023-02-02T04:04:52.592Z,1.20
2023-02-02T04:07:19.402Z,1.00
2023-02-02T04:09:46.165Z,1.10
2023-02-02T04:12:12.988Z,1.40
2023-02-02T04:14:40.024Z,1.25
2023-02-02T04:17:06.806Z,1.60
2023-02-02T04:19:33.739Z,1.45
2023-02-02T04:22:00.526Z,1.88
2023-02-02T04:24:27.299Z,1.55
2023-02-02T04:26:54.110Z,1.40
2023-02-02T04:29:20.932Z,1.27
2023-02-02T04:31:47.772Z,1.00
2023-02-02T04:34:14.658Z,1.25
2023-02-02T04:36:41.451Z,1.38
2023-02-02T04:39:11.546Z,1.50
2023-02-02T04:41:38.300Z,1.27
2023-02-02T04:44:06.735Z,0.93
2023-02-02T04:46:33.571Z,1.00
2023-02-02T04:49:00.509Z,1.40
2023-02-02T04:51:27.337Z,1.10
2023-02-02T04:53:54.122Z,0.82
2023-02-02T04:56:20.898Z,1.15
2023-02-02T04:58:47.704Z,0.88
2023-02-02T05:01:19.458Z,1.00
2023-02-02T05:03:47.268Z,0.70
2023-02-02T05:06:16.056Z,1.23
2023-02-02T05:08:43.737Z,1.20
2023-02-02T05:11:13.829Z,0.95
2023-02-02T05:13:44.864Z,1.20
2023-02-02T05:16:11.849Z,1.25
2023-02-02T05:18:39.870Z,1.90
2023-02-02T05:21:06.693Z,1.17
2023-02-02T05:23:33.644Z,1.73
2023-02-02T05:26:00.442Z,1.42
2023-02-02T05:28:27.208Z,1.55
2023-02-02T05:30:54.096Z,1.88
2023-02-02T05:33:20.932Z,1.60
2023-02-02T05:35:48.613Z,1.50
2023-02-02T05:38:16.543Z,1.92
2023-02-02T05:40:43.459Z,1.70
2023-02-02T05:43:10.259Z,1.42
2023-02-02T05:45:37.141Z,1.23
2023-02-02T05:48:04.113Z,1.30
2023-02-02T05:50:30.941Z,1.30
2023-02-02T08:12:20.639Z,1.60
2023-02-02T08:14:59.222Z,1.63
2023-02-02T08:17:31.644Z,1.00
2023-02-02T08:20:02.375Z,1.00
2023-02-02T08:22:33.427Z,1.30
2023-02-02T08:25:04.018Z,1.10
2023-02-02T08:27:36.972Z,1.00
2023-02-02T08:30:11.846Z,0.85
2023-02-02T08:32:43.103Z,1.10
2023-02-02T08:35:11.837Z,1.00
2023-02-02T08:37:43.174Z,0.90
2023-02-02T08:40:14.515Z,0.90
2023-02-02T08:42:47.302Z,0.90
2023-02-02T08:46:02.035Z,1.05
2023-02-02T08:48:21.094Z,1.02
2023-02-02T08:50:56.274Z,1.35
2023-02-02T08:53:27.707Z,1.25
2023-02-02T08:56:06.406Z,1.38
2023-02-02T08:58:52.393Z,1.23
2023-02-02T09:01:26.495Z,0.95
2023-02-02T09:07:37.750Z,0.88
2023-02-02T09:10:08.412Z,1.23
2023-02-02T09:12:37.559Z,0.68
2023-02-02T09:15:06.778Z,1.10
2023-02-02T09:17:36.511Z,1.30
2023-02-02T09:20:05.311Z,1.60
2023-02-02T09:22:34.176Z,1.38
2023-02-02T09:25:03.560Z,1.10
2023-02-02T09:27:31.282Z,1.45
2023-02-02T09:29:58.454Z,1.35
2023-02-02T09:32:25.475Z,1.65
2023-02-02T09:34:52.437Z,1.85
2023-02-02T09:37:19.357Z,1.40
2023-02-02T09:39:46.254Z,1.13
2023-02-02T09:42:29.255Z,1.30
2023-02-02T09:45:26.472Z,1.13
2023-02-02T09:48:12.437Z,1.48
2023-02-02T09:50:47.580Z,1.20
2023-02-02T09:53:38.487Z,2.75
2023-02-02T09:56:26.261Z,1.20
2023-02-02T09:59:02.157Z,1.17
2023-02-02T10:01:42.766Z,1.10
2023-02-02T10:04:23.863Z,1.23
2023-02-02T10:06:53.919Z,1.02
2023-02-02T10:09:51.067Z,1.38
2023-02-02T10:12:47.344Z,0.90
2023-02-02T10:15:38.667Z,0.90
2023-02-02T10:18:18.763Z,1.17
2023-02-02T10:20:57.700Z,1.40
2023-02-02T10:23:27.701Z,0.90
2023-02-02T10:26:25.446Z,1.10
2023-02-02T10:31:47.167Z,0.93
2023-02-02T10:34:27.818Z,0.73
2023-02-02T10:37:34.645Z,0.70
2023-02-02T10:40:14.946Z,1.00
2023-02-02T10:43:15.816Z,0.60
2023-02-02T10:45:44.754Z,0.45
2023-02-02T10:48:15.547Z,0.80
2023-02-02T10:50:47.900Z,1.30
2023-02-02T10:53:16.536Z,0.68
2023-02-02T10:55:53.793Z,0.93
2023-02-02T10:58:29.311Z,0.85
2023-02-02T11:01:01.259Z,0.80
2023-02-02T11:03:31.286Z,0.98
2023-02-02T11:06:31.603Z,1.08
2023-02-02T11:08:59.557Z,0.98
2023-02-02T11:11:42.898Z,0.68
2023-02-02T11:14:10.125Z,0.73
2023-02-02T11:16:44.299Z,0.80
2023-02-02T11:19:17.605Z,1.08
2023-02-02T11:21:50.459Z,1.15
2023-02-02T11:24:36.560Z,0.80
2023-02-02T11:27:04.913Z,1.00
2023-02-02T11:29:40.048Z,1.08
2023-02-02T11:32:33.955Z,0.80
2023-02-02T11:35:08.449Z,0.80
2023-02-02T11:37:56.626Z,1.23
2023-02-02T11:40:33.472Z,0.80
2023-02-02T11:43:07.983Z,0.82
2023-02-02T11:45:41.492Z,1.20
2023-02-02T11:48:21.210Z,0.50
2023-02-02T11:50:56.431Z,0.60
2023-02-02T11:53:28.026Z,1.67
2023-02-02T11:58:56.434Z,0.90
2023-02-02T12:01:27.835Z,0.93
2023-02-02T12:04:04.045Z,1.10
2023-02-02T12:06:33.907Z,0.90
2023-02-02T12:09:09.733Z,1.02
2023-02-02T12:11:59.204Z,1.08
2023-02-02T12:15:10.500Z,0.80
2023-02-02T12:17:42.277Z,1.10
2023-02-02T12:20:40.548Z,1.70
2023-02-02T12:23:23.264Z,0.93
2023-02-02T12:26:17.233Z,1.20
2023-02-02T12:29:11.504Z,1.05
2023-02-02T12:31:59.781Z,1.35
2023-02-02T12:34:40.968Z,0.90
2023-02-02T12:37:26.549Z,1.45
2023-02-02T12:40:24.521Z,0.88
2023-02-02T12:43:06.490Z,0.82
2023-02-02T12:45:57.787Z,0.50
2023-02-02T12:48:33.768Z,0.85
2023-02-02T12:51:18.522Z,0.60
2023-02-02T12:54:33.143Z,0.90
2023-02-02T12:56:52.761Z,0.40
2023-02-02T12:59:48.960Z,0.77
2023-02-02T13:02:36.577Z,1.90
2023-02-02T13:05:27.775Z,0.90
2023-02-02T13:08:17.943Z,0.80
2023-02-02T13:10:49.040Z,0.80
2023-02-02T13:13:25.586Z,1.00
2023-02-02T13:15:58.510Z,0.90
2023-02-02T13:18:40.290Z,0.70
2023-02-02T13:21:19.661Z,0.85
2023-02-02T13:23:50.829Z,0.90
2023-02-02T13:26:35.348Z,0.80
2023-02-02T13:29:29.789Z,0.88
2023-02-02T13:32:00.022Z,0.80
2023-02-02T13:34:50.614Z,1.15
2023-02-02T13:37:40.051Z,0.75
2023-02-02T13:40:21.961Z,0.85
2023-02-02T13:43:17.393Z,1.60
2023-02-02T13:45:53.213Z,0.90
2023-02-02T13:48:54.004Z,1.10
2023-02-02T13:51:20.769Z,0.60
2023-02-02T13:54:06.041Z,1.05
2023-02-02T13:56:39.560Z,1.20
2023-02-02T13:59:24.168Z,1.00
2023-02-02T14:01:52.261Z,0.93
2023-02-02T14:04:26.075Z,0.82
2023-02-02T14:07:06.672Z,0.65
2023-02-02T14:09:37.650Z,0.90
2023-02-02T14:12:29.456Z,0.95
2023-02-02T14:14:57.734Z,0.75
2023-02-02T14:20:03.438Z,0.73
2023-02-02T14:22:48.047Z,0.70
2023-02-02T14:25:33.543Z,0.63
2023-02-02T14:28:09.151Z,0.57
2023-02-02T14:30:38.726Z,0.77
2023-02-02T14:33:20.927Z,1.15
2023-02-02T14:35:47.698Z,0.73
2023-02-02T14:38:49.346Z,1.00
2023-02-02T14:41:42.564Z,0.80
2023-02-02T14:44:09.571Z,1.00
2023-02-02T14:46:39.779Z,0.80
2023-02-02T14:49:08.534Z,1.27
2023-02-02T14:51:47.262Z,1.20
2023-02-02T14:54:25.790Z,0.98
2023-02-02T14:56:59.951Z,0.80
2023-02-02T14:59:37.325Z,1.02
2023-02-02T15:02:10.331Z,0.82
2023-02-02T15:04:37.794Z,0.90
2023-02-02T15:07:22.891Z,0.88
2023-02-02T15:09:50.672Z,0.85
2023-02-02T15:12:20.929Z,0.90
2023-02-02T15:15:01.546Z,1.23
2023-02-02T15:17:40.845Z,1.27
2023-02-02T15:20:26.484Z,0.80
2023-02-02T15:23:00.763Z,1.15
2023-02-02T15:25:51.410Z,1.13
2023-02-02T15:28:26.652Z,0.80
2023-02-02T15:31:02.657Z,0.98
2023-02-02T15:33:31.247Z,0.90
2023-02-02T15:36:03.582Z,1.90
2023-02-02T15:38:39.764Z,1.10
2023-02-02T15:41:32.300Z,0.95
2023-02-02T15:44:00.546Z,0.90
2023-02-02T15:49:33.694Z,1.20
2023-02-02T15:52:10.783Z,1.05
2023-02-02T15:54:40.568Z,0.82
2023-02-02T15:57:44.742Z,1.20
2023-02-02T16:00:35.762Z,1.50
2023-02-02T16:03:26.795Z,0.73
2023-02-02T16:05:58.263Z,1.30
2023-02-02T16:08:34.581Z,1.10
2023-02-02T16:11:16.591Z,1.30
2023-02-02T16:14:02.295Z,0.85
2023-02-02T16:16:32.242Z,1.10
2023-02-02T16:19:18.157Z,1.30
2023-02-02T16:21:50.762Z,1.42
2023-02-02T16:24:23.881Z,1.00
2023-02-02T16:26:54.325Z,1.10
2023-02-02T16:29:22.218Z,1.20
2023-02-02T16:31:49.823Z,1.58
2023-02-02T16:34:49.970Z,0.95
2023-02-02T16:37:27.202Z,1.40
2023-02-02T16:40:15.269Z,1.20
2023-02-02T16:42:42.073Z,1.42
2023-02-02T16:45:39.593Z,1.17
2023-02-02T16:48:27.228Z,1.15
2023-02-02T16:51:03.808Z,1.10
2023-02-02T16:53:31.067Z,1.20
2023-02-02T16:55:58.061Z,0.93
2023-02-02T16:58:26.678Z,1.10
2023-02-02T17:01:16.067Z,0.55
2023-02-02T17:03:53.747Z,1.00
2023-02-02T17:06:45.612Z,2.30
2023-02-02T17:09:36.264Z,10.07
2023-02-02T17:12:30.479Z,6.05
2023-02-02T17:15:17.880Z,1.77
2023-02-02T17:17:49.156Z,1.48
2023-02-02T17:20:17.834Z,1.30
2023-02-02T17:22:48.538Z,1.05
2023-02-02T17:25:22.436Z,1.25
2023-02-02T17:27:49.471Z,1.38
2023-02-02T17:30:18.506Z,1.13
2023-02-02T17:32:45.654Z,1.15
2023-02-02T17:35:18.198Z,1.10
2023-02-02T17:37:45.242Z,1.00
2023-02-02T17:40:16.364Z,0.80
2023-02-02T17:42:49.335Z,0.90
2023-02-02T17:45:28.329Z,1.40
2023-02-02T17:47:55.244Z,1.02
2023-02-02T17:50:22.535Z,1.70
2023-02-02T17:52:50.122Z,1.52
2023-02-02T17:55:21.488Z,1.13
2023-02-02T17:57:49.491Z,1.55
2023-02-02T18:00:17.956Z,0.90
2023-02-02T18:02:46.327Z,1.40
2023-02-02T18:05:14.265Z,1.67
2023-02-02T18:07:41.307Z,1.60
2023-02-02T18:10:10.364Z,1.90
2023-02-02T18:12:37.540Z,1.83
2023-02-02T18:15:06.924Z,1.55
2023-02-02T18:17:34.662Z,1.45
2023-02-02T18:20:01.398Z,1.60
2023-02-02T18:22:28.212Z,1.35
2023-02-02T18:24:55.309Z,1.20
2023-02-02T18:27:22.136Z,1.23
2023-02-02T18:29:48.892Z,1.50
2023-02-02T18:32:17.565Z,2.00
2023-02-02T18:34:45.710Z,1.60
2023-02-02T18:37:12.693Z,1.83
2023-02-02T18:39:39.483Z,1.80
2023-02-02T18:42:06.368Z,2.90
2023-02-02T18:44:35.240Z,2.15
2023-02-02T18:47:02.152Z,2.70
2023-02-02T18:49:28.914Z,2.42
2023-02-02T18:51:55.783Z,2.45
2023-02-02T18:54:23.417Z,2.20
2023-02-02T18:56:50.580Z,2.60
2023-02-02T18:59:17.450Z,2.43
2023-02-02T19:01:44.306Z,1.83
2023-02-02T19:04:11.328Z,1.88
2023-02-02T19:06:56.834Z,2.08
2023-02-02T19:09:24.705Z,2.20
2023-02-02T19:14:30.646Z,6.05
2023-02-02T19:17:28.038Z,5.05
2023-02-02T19:19:58.980Z,4.00
2023-02-02T19:22:31.044Z,3.35
2023-02-02T19:24:58.324Z,4.15
2023-02-02T19:27:28.754Z,3.78
2023-02-02T19:30:00.158Z,4.40
2023-02-02T19:32:32.667Z,3.90
2023-02-02T19:35:05.505Z,6.80
2023-02-02T19:37:37.362Z,4.50
2023-02-02T19:40:10.778Z,4.70
2023-02-02T19:42:43.831Z,6.45
2023-02-02T19:45:22.840Z,4.97
2023-02-02T19:47:52.781Z,6.13
2023-02-02T19:50:22.851Z,6.90
2023-02-02T19:52:53.363Z,6.30
2023-02-02T19:55:41.214Z,5.70
2023-02-02T19:58:21.756Z,7.00
2023-02-02T20:00:51.260Z,7.35
2023-02-02T20:03:26.365Z,8.20
2023-02-02T20:05:55.825Z,8.27
2023-02-02T20:08:27.023Z,8.38
2023-02-02T20:10:55.986Z,7.60
2023-02-02T20:13:25.630Z,6.70
2023-02-02T20:16:03.699Z,6.75
2023-02-02T20:18:44.457Z,6.22
2023-02-02T20:21:19.755Z,7.70
2023-02-02T20:23:46.901Z,8.15
2023-02-02T20:26:23.793Z,7.50
2023-02-02T20:28:51.397Z,6.60
2023-02-02T20:31:21.571Z,7.93
2023-02-02T20:33:53.516Z,8.32
2023-02-02T20:36:23.244Z,7.95
2023-02-02T20:38:50.375Z,8.80
2023-02-02T20:41:18.763Z,8.57
2023-02-02T20:43:46.304Z,9.10
2023-02-02T20:46:15.060Z,8.82
2023-02-02T20:48:42.199Z,8.95
2023-02-02T20:51:09.027Z,8.75
2023-02-02T20:53:36.145Z,8.02
2023-02-02T20:56:03.572Z,9.05
2023-02-02T20:58:30.464Z,10.00
2023-02-02T21:00:57.715Z,8.65
2023-02-02T21:03:24.646Z,8.70
2023-02-02T21:05:51.475Z,9.43
2023-02-02T21:08:18.421Z,9.45
2023-02-02T21:10:45.367Z,9.45
2023-02-02T21:13:12.256Z,17.52
2023-02-02T21:15:39.161Z,22.77
2023-02-02T21:18:06.009Z,12.48
2023-02-02T21:20:32.847Z,10.10
2023-02-02T21:22:59.913Z,8.43
2023-02-02T21:25:26.765Z,8.50
2023-02-02T21:27:56.682Z,8.82
2023-02-02T21:30:23.829Z,8.73
2023-02-02T21:32:50.756Z,8.25
2023-02-02T21:35:17.796Z,8.70
2023-02-02T21:37:46.797Z,9.25
2023-02-02T21:40:19.474Z,10.15
2023-02-02T21:42:49.323Z,8.77
2023-02-02T21:45:25.473Z,9.60
2023-02-02T21:47:57.192Z,9.07
2023-02-02T21:50:30.988Z,9.13
2023-02-02T21:53:09.816Z,8.75
2023-02-02T21:55:38.738Z,9.52
2023-02-02T21:58:25.637Z,9.05
2023-02-02T22:00:54.359Z,8.95
2023-02-02T22:03:43.584Z,9.00
2023-02-02T22:06:42.193Z,9.20
2023-02-02T22:09:12.097Z,8.85
2023-02-02T22:11:51.949Z,8.70
2023-02-02T22:14:36.584Z,8.35
2023-02-02T22:17:18.472Z,9.00
2023-02-02T22:19:45.426Z,7.70
2023-02-02T22:22:18.487Z,7.65
2023-02-02T22:24:48.027Z,7.47
2023-02-02T22:27:23.557Z,7.50
2023-02-02T22:29:56.798Z,8.88
2023-02-02T22:32:23.627Z,9.63
2023-02-02T22:34:50.341Z,12.55
2023-02-02T22:37:17.195Z,10.73
2023-02-02T22:39:44.342Z,9.73
2023-02-02T22:42:11.252Z,9.57
2023-02-02T22:44:38.228Z,8.93
2023-02-02T22:47:05.159Z,8.55
2023-02-02T22:49:32.043Z,9.00
2023-02-02T22:51:58.871Z,11.32
2023-02-02T22:54:25.688Z,10.20
2023-02-02T22:56:52.490Z,9.88
2023-02-02T22:59:19.251Z,10.00
2023-02-02T23:01:47.128Z,9.40
2023-02-02T23:04:14.099Z,8.77
2023-02-02T23:06:41.105Z,8.63
2023-02-02T23:09:07.955Z,8.52
2023-02-02T23:11:34.742Z,8.07
2023-02-02T23:14:01.560Z,8.20
2023-02-02T23:16:28.585Z,7.93
2023-02-02T23:18:55.368Z,5.90
2023-02-02T23:21:22.186Z,6.78
2023-02-02T23:23:49.442Z,6.57
2023-02-02T23:26:16.255Z,5.95
2023-02-02T23:28:43.014Z,5.85
2023-02-02T23:31:10.032Z,6.25
2023-02-02T23:33:36.861Z,5.20
2023-02-02T23:36:04.059Z,5.82
2023-02-02T23:38:30.859Z,6.65
2023-02-02T23:40:58.284Z,5.38
2023-02-02T23:43:25.098Z,4.65
2023-02-02T23:45:52.156Z,5.10
2023-02-02T23:48:19.883Z,4.70
2023-02-02T23:50:47.184Z,5.45
2023-02-02T23:53:15.341Z,4.78
2023-02-02T23:55:43.198Z,4.60
2023-02-02T23:58:10.950Z,4.63
